Argo, Texas
Current Conditions -  °F | °C
As of 12:35 PM on Friday 31 Oct 2014 (Local Time) from KOSA Reporting Station
Clear Clear  
Wind Chill: 65°   Ceiling: Unl
Heat Index: 65°   Visibility: 10mi
Dew Point: 42°   Wind: 16mph
Humidity: 42%   Direction: 360°N
Pressure: 30.28"   Gusts: 22mph
Location:  33.1839°N, 94.8612°W
Report Text: KOSA 311735Z AUTO 36014G19KT 10SM CLR 19/05 A3028 RMK AO1 T01850053
Loading
Personal Weather Stations






























Interactive Weather Map
Tropical Storm Tracking
New forecast layout! Learn more

10-Day Weather Forecast

Advertisements
Track Severe Weather on mobile